Time;durP1;ratioP1;P1;durP2;ratioP2;P2;SDS_P1;SDS_P2;PMS_P1;PMS_P2;Temp;Humidity;BMP_temperature;BMP_pressure;BME280_temperature;BME280_humidity;BME280_pressure;Samples;Min_cycle;Max_cycle;Signal;HPM_P1;HPM_P2
2022/02/14 00:00:06;;;;;;;4.07;2.70;;;6.00;99.90;;;;;;5023476;28;20449;-60
2022/02/14 00:02:33;;;;;;;14.00;3.47;;;6.00;99.90;;;;;;5023864;28;20537;-59
2022/02/14 00:05:02;;;;;;;8.70;4.47;;;6.00;99.90;;;;;;5023150;28;20537;-58
2022/02/14 00:07:29;;;;;;;4.10;3.07;;;6.00;99.90;;;;;;5023965;28;20974;-55
2022/02/14 00:09:59;;;;;;;6.20;4.00;;;6.10;99.90;;;;;;5024061;28;20452;-59
2022/02/14 00:12:27;;;;;;;8.80;3.93;;;6.10;99.90;;;;;;5023243;28;20853;-59
2022/02/14 00:14:54;;;;;;;5.73;3.97;;;6.10;99.90;;;;;;5023814;28;20902;-59
2022/02/14 00:17:21;;;;;;;5.90;3.40;;;6.10;99.90;;;;;;5023938;28;20499;-59
2022/02/14 00:19:50;;;;;;;6.07;3.53;;;6.10;99.90;;;;;;5023547;28;20434;-59
2022/02/14 00:22:21;;;;;;;6.43;3.20;;;6.10;99.90;;;;;;5024107;28;20435;-54
2022/02/14 00:24:48;;;;;;;4.97;2.77;;;6.10;99.90;;;;;;5023974;28;20522;-60
2022/02/14 00:27:17;;;;;;;5.43;3.20;;;6.10;99.90;;;;;;5023744;28;20516;-57
2022/02/14 00:29:43;;;;;;;5.73;4.03;;;6.10;99.90;;;;;;5023964;28;20516;-59
2022/02/14 00:32:10;;;;;;;7.20;3.80;;;6.10;99.90;;;;;;5023521;28;20477;-59
2022/02/14 00:34:37;;;;;;;4.20;3.30;;;6.20;99.90;;;;;;5023719;28;20980;-56
2022/02/14 00:37:04;;;;;;;8.23;3.70;;;6.20;99.90;;;;;;5023502;28;20495;-55
2022/02/14 00:39:31;;;;;;;9.53;3.30;;;6.20;99.90;;;;;;5022932;28;20418;-56
2022/02/14 00:41:58;;;;;;;11.67;3.60;;;6.20;99.90;;;;;;5023847;28;20459;-56
2022/02/14 00:44:26;;;;;;;4.93;4.20;;;6.10;99.90;;;;;;5022730;28;20563;-57
2022/02/14 00:46:52;;;;;;;6.40;3.30;;;6.20;99.90;;;;;;5023014;28;20439;-55
2022/02/14 00:49:19;;;;;;;10.73;4.17;;;6.20;99.90;;;;;;5023585;28;20451;-60
2022/02/14 00:51:46;;;;;;;5.63;3.77;;;6.20;99.90;;;;;;5022704;28;20454;-60
2022/02/14 00:54:13;;;;;;;5.03;3.10;;;6.20;99.90;;;;;;5023348;28;20460;-60
2022/02/14 00:56:39;;;;;;;6.17;3.77;;;6.20;99.90;;;;;;5022639;28;20484;-64
2022/02/14 00:59:06;;;;;;;6.23;3.37;;;6.10;99.90;;;;;;5022869;28;20737;-61
2022/02/14 01:01:34;;;;;;;9.93;4.20;;;6.10;99.90;;;;;;5023218;28;20446;-57
2022/02/14 01:04:01;;;;;;;4.70;3.40;;;6.10;99.90;;;;;;5023119;28;20482;-61
2022/02/14 01:06:28;;;;;;;4.97;3.20;;;6.10;99.90;;;;;;5022979;28;20468;-59
2022/02/14 01:08:55;;;;;;;4.30;3.23;;;6.00;99.90;;;;;;5022527;28;20451;-58
2022/02/14 01:11:22;;;;;;;4.33;3.93;;;5.90;99.90;;;;;;5022711;28;20471;-56
2022/02/14 01:13:49;;;;;;;7.20;4.40;;;5.80;99.90;;;;;;5023147;28;20451;-58
2022/02/14 01:16:16;;;;;;;4.63;4.10;;;5.80;99.90;;;;;;5022934;28;20481;-58
2022/02/14 01:18:44;;;;;;;5.43;3.50;;;5.70;99.90;;;;;;5022940;28;20455;-58
2022/02/14 01:21:11;;;;;;;6.17;4.13;;;5.70;99.90;;;;;;5022666;28;20449;-58
2022/02/14 01:23:37;;;;;;;6.00;4.20;;;5.70;99.90;;;;;;5022869;28;20474;-55
2022/02/14 01:26:04;;;;;;;6.43;3.30;;;5.60;99.90;;;;;;5022975;28;20496;-57
2022/02/14 01:28:31;;;;;;;6.70;3.40;;;5.60;99.90;;;;;;5023164;28;20459;-60
2022/02/14 01:30:57;;;;;;;3.90;2.87;;;5.60;99.90;;;;;;5022832;28;20482;-60
2022/02/14 01:33:24;;;;;;;5.17;3.20;;;5.50;99.90;;;;;;5022651;28;20459;-59
2022/02/14 01:35:52;;;;;;;5.30;3.10;;;5.60;99.90;;;;;;5022957;28;20446;-57
2022/02/14 01:38:19;;;;;;;4.90;3.37;;;5.60;99.90;;;;;;5022071;28;20492;-60
2022/02/14 01:40:46;;;;;;;5.53;3.63;;;5.50;99.90;;;;;;5022107;28;20457;-59
2022/02/14 01:43:15;;;;;;;6.73;4.07;;;5.50;99.90;;;;;;5021542;28;20497;-57
2022/02/14 01:45:42;;;;;;;12.90;4.27;;;5.50;99.90;;;;;;5022658;28;20425;-57
2022/02/14 01:48:09;;;;;;;4.27;3.60;;;5.40;99.90;;;;;;5021970;28;20450;-56
2022/02/14 01:50:36;;;;;;;7.50;3.70;;;5.40;99.90;;;;;;5021471;28;20488;-52
2022/02/14 01:53:05;;;;;;;6.90;3.47;;;5.40;99.90;;;;;;5022176;28;20549;-59
2022/02/14 01:55:33;;;;;;;4.10;3.70;;;5.40;99.90;;;;;;5022189;28;20496;-59
2022/02/14 01:58:01;;;;;;;5.70;4.50;;;5.40;99.90;;;;;;5022018;28;20544;-58
2022/02/14 02:00:29;;;;;;;4.93;3.00;;;5.30;99.90;;;;;;5021677;28;20458;-55
2022/02/14 02:02:55;;;;;;;7.57;4.37;;;5.30;99.90;;;;;;5020937;28;20947;-54
2022/02/14 02:05:23;;;;;;;3.90;2.90;;;5.20;99.90;;;;;;5022356;28;20504;-59
2022/02/14 02:07:51;;;;;;;5.80;3.60;;;5.20;99.90;;;;;;5022061;28;20504;-59
2022/02/14 02:10:19;;;;;;;4.97;3.43;;;5.20;99.90;;;;;;5020702;28;20489;-60
2022/02/14 02:12:51;;;;;;;5.13;3.37;;;5.10;99.90;;;;;;5022207;28;20437;-57
2022/02/14 02:15:18;;;;;;;4.43;3.27;;;5.10;99.90;;;;;;5021853;28;20585;-58
2022/02/14 02:17:45;;;;;;;6.53;3.50;;;5.10;99.90;;;;;;5022160;28;20488;-58
2022/02/14 02:20:15;;;;;;;5.20;3.17;;;5.10;99.90;;;;;;5022274;28;20911;-54
2022/02/14 02:22:43;;;;;;;6.20;3.17;;;5.00;99.90;;;;;;5022035;28;20442;-58
2022/02/14 02:25:12;;;;;;;7.07;3.83;;;5.00;99.90;;;;;;5022274;28;20435;-60
2022/02/14 02:27:39;;;;;;;5.50;3.57;;;5.00;99.90;;;;;;5022142;28;20445;-60
2022/02/14 02:30:09;;;;;;;3.87;2.60;;;5.00;99.90;;;;;;5022226;28;20474;-60
2022/02/14 02:32:36;;;;;;;5.40;2.93;;;5.00;99.90;;;;;;5021721;28;20458;-53
2022/02/14 02:35:04;;;;;;;6.83;3.43;;;5.00;99.90;;;;;;5022285;28;20450;-58
2022/02/14 02:37:31;;;;;;;6.03;3.20;;;5.00;99.90;;;;;;5022009;28;20485;-58
2022/02/14 02:39:58;;;;;;;3.73;2.77;;;4.90;99.90;;;;;;5022208;28;20461;-59
2022/02/14 02:42:26;;;;;;;4.83;2.83;;;4.90;99.90;;;;;;5022534;28;20446;-59
2022/02/14 02:44:54;;;;;;;4.20;2.93;;;4.90;99.90;;;;;;5023346;28;20434;-59
2022/02/14 02:47:22;;;;;;;5.70;2.57;;;4.90;99.90;;;;;;5023384;28;20508;-58
2022/02/14 02:49:50;;;;;;;5.80;3.37;;;4.90;99.90;;;;;;5023056;28;20544;-59
2022/02/14 02:52:18;;;;;;;6.40;3.17;;;4.90;99.90;;;;;;5023951;28;20457;-55
2022/02/14 02:54:46;;;;;;;4.53;3.30;;;4.80;99.90;;;;;;5023132;28;20778;-57
2022/02/14 02:57:13;;;;;;;3.80;2.50;;;4.90;99.90;;;;;;5022493;28;20504;-59
2022/02/14 02:59:42;;;;;;;11.03;2.37;;;4.80;99.90;;;;;;5022518;28;20480;-58
2022/02/14 03:02:09;;;;;;;4.80;2.90;;;4.90;99.90;;;;;;5022390;28;20491;-59
2022/02/14 03:04:36;;;;;;;6.20;3.03;;;4.90;99.90;;;;;;5022059;28;20449;-60
2022/02/14 03:07:03;;;;;;;3.83;3.40;;;4.80;99.90;;;;;;5022809;28;20459;-58
2022/02/14 03:09:30;;;;;;;4.37;2.30;;;4.90;99.90;;;;;;5022999;28;20528;-49
2022/02/14 03:11:57;;;;;;;5.30;3.73;;;4.90;99.90;;;;;;5022352;28;20758;-58
2022/02/14 03:14:24;;;;;;;3.20;2.00;;;4.90;99.90;;;;;;5022338;28;20524;-57
2022/02/14 03:16:52;;;;;;;8.07;2.90;;;4.80;99.90;;;;;;5021937;28;20544;-60
2022/02/14 03:19:18;;;;;;;5.30;2.50;;;4.90;99.90;;;;;;5022827;28;20446;-58
2022/02/14 03:21:45;;;;;;;5.47;2.80;;;4.90;99.90;;;;;;5024122;28;20469;-60
2022/02/14 03:24:13;;;;;;;4.27;2.77;;;4.90;99.90;;;;;;5026911;28;20499;-56
2022/02/14 03:26:39;;;;;;;7.67;2.90;;;4.90;99.90;;;;;;5026103;28;20445;-54
2022/02/14 03:29:06;;;;;;;3.93;2.20;;;4.90;99.90;;;;;;5026658;28;20772;-54
2022/02/14 03:31:33;;;;;;;4.37;2.77;;;5.00;99.90;;;;;;5026686;28;20476;-58
2022/02/14 03:34:01;;;;;;;7.07;2.70;;;5.00;99.90;;;;;;5026800;28;20452;-59
2022/02/14 03:36:28;;;;;;;5.63;2.90;;;5.00;99.90;;;;;;5026416;28;20954;-59
2022/02/14 03:38:54;;;;;;;2.93;2.37;;;5.00;99.90;;;;;;5026299;28;20553;-58
2022/02/14 03:41:21;;;;;;;3.90;2.20;;;5.00;99.90;;;;;;5026167;28;20482;-56
2022/02/14 03:43:49;;;;;;;5.63;2.00;;;5.00;99.90;;;;;;5027080;28;20821;-52
2022/02/14 03:46:16;;;;;;;6.03;3.07;;;5.00;99.90;;;;;;5027143;28;20438;-58
2022/02/14 03:48:43;;;;;;;4.30;2.70;;;5.00;99.90;;;;;;5026543;28;21121;-58
2022/02/14 03:51:11;;;;;;;5.03;3.03;;;5.00;99.90;;;;;;5026460;28;20431;-58
2022/02/14 03:53:38;;;;;;;4.97;2.47;;;5.00;99.90;;;;;;5027188;28;20456;-59
2022/02/14 03:56:06;;;;;;;4.60;2.83;;;5.00;99.90;;;;;;5025948;28;20504;-58
2022/02/14 03:58:33;;;;;;;5.70;2.67;;;5.00;99.90;;;;;;5025431;28;20861;-57
2022/02/14 04:01:00;;;;;;;2.63;2.33;;;5.00;99.90;;;;;;5026170;28;20525;-59
2022/02/14 04:03:26;;;;;;;5.00;2.30;;;5.00;99.90;;;;;;5025926;28;20872;-59
2022/02/14 04:05:55;;;;;;;6.00;2.90;;;5.00;99.90;;;;;;5025824;28;20468;-60
2022/02/14 04:08:23;;;;;;;3.43;2.27;;;5.00;99.90;;;;;;5025100;28;20462;-58
2022/02/14 04:10:53;;;;;;;3.47;2.83;;;5.10;99.90;;;;;;5026069;28;20454;-58
2022/02/14 04:13:20;;;;;;;5.90;2.73;;;5.10;99.90;;;;;;5025391;28;20483;-55
2022/02/14 04:15:47;;;;;;;4.63;2.83;;;5.10;99.90;;;;;;5025667;28;20445;-53
2022/02/14 04:18:15;;;;;;;3.80;2.67;;;5.10;99.90;;;;;;5024992;28;20485;-57
2022/02/14 04:20:42;;;;;;;5.10;3.20;;;5.10;99.90;;;;;;5025316;28;21110;-57
2022/02/14 04:23:08;;;;;;;6.53;2.57;;;5.10;99.90;;;;;;5025253;28;20450;-56
2022/02/14 04:25:36;;;;;;;2.50;2.27;;;5.10;99.90;;;;;;5025306;28;20531;-57
2022/02/14 04:28:03;;;;;;;3.60;3.00;;;5.10;99.90;;;;;;5024460;28;20453;-56
2022/02/14 04:30:31;;;;;;;5.10;3.53;;;5.20;99.90;;;;;;5024824;28;20989;-58
2022/02/14 04:33:00;;;;;;;4.87;2.80;;;5.20;99.90;;;;;;5023641;28;20446;-58
2022/02/14 04:35:27;;;;;;;3.00;2.37;;;5.20;99.90;;;;;;5025015;28;20449;-59
2022/02/14 04:37:59;;;;;;;3.10;2.00;;;5.20;99.90;;;;;;5024739;28;20495;-55
2022/02/14 04:40:27;;;;;;;5.00;2.70;;;5.20;99.90;;;;;;5024838;28;20493;-59
2022/02/14 04:42:55;;;;;;;3.63;3.17;;;5.20;99.90;;;;;;5024970;28;20569;-60
2022/02/14 04:45:22;;;;;;;6.13;2.50;;;5.20;99.90;;;;;;5024822;28;20790;-55
2022/02/14 04:47:49;;;;;;;3.30;1.80;;;5.20;99.90;;;;;;5024635;28;20460;-55
2022/02/14 04:50:15;;;;;;;5.07;2.77;;;5.20;99.90;;;;;;5024936;28;20452;-59
2022/02/14 04:52:42;;;;;;;5.57;2.67;;;5.30;99.90;;;;;;5024636;28;20482;-59
2022/02/14 04:55:10;;;;;;;6.07;3.20;;;5.30;99.90;;;;;;5024566;28;20505;-57
2022/02/14 04:57:36;;;;;;;3.20;2.50;;;5.30;99.90;;;;;;5024399;28;20483;-60
2022/02/14 05:00:06;;;;;;;6.60;2.93;;;5.30;99.90;;;;;;5024308;28;20447;-60
2022/02/14 05:02:33;;;;;;;5.37;2.93;;;5.30;99.90;;;;;;5023501;28;20470;-56
2022/02/14 05:04:59;;;;;;;7.17;3.03;;;5.30;99.90;;;;;;5024173;28;20489;-59
2022/02/14 05:07:26;;;;;;;11.00;3.10;;;5.30;99.90;;;;;;5023677;28;20473;-56
2022/02/14 05:09:53;;;;;;;4.00;2.50;;;5.30;99.90;;;;;;5023489;28;20496;-55
2022/02/14 05:12:19;;;;;;;4.50;2.57;;;5.40;99.90;;;;;;5023805;28;20477;-59
2022/02/14 05:14:46;;;;;;;3.63;2.83;;;5.40;99.90;;;;;;5024038;28;20470;-57
2022/02/14 05:17:15;;;;;;;2.87;2.23;;;5.30;99.90;;;;;;5024106;28;20504;-60
2022/02/14 05:19:42;;;;;;;7.97;3.00;;;5.30;99.90;;;;;;5023520;28;20565;-56
2022/02/14 05:22:10;;;;;;;4.30;3.10;;;5.30;99.90;;;;;;5024164;28;20569;-59
2022/02/14 05:24:37;;;;;;;3.83;2.53;;;5.30;99.90;;;;;;5024727;28;20503;-60
2022/02/14 05:27:04;;;;;;;5.03;3.37;;;5.30;99.90;;;;;;5024035;28;20482;-59
2022/02/14 05:29:30;;;;;;;7.80;2.57;;;5.20;99.90;;;;;;5023409;28;20469;-59
2022/02/14 05:31:58;;;;;;;4.77;3.17;;;5.20;99.90;;;;;;5022992;28;20450;-54
2022/02/14 05:34:26;;;;;;;5.77;3.00;;;5.20;99.90;;;;;;5024385;28;20459;-56
2022/02/14 05:36:52;;;;;;;5.13;3.33;;;5.10;99.90;;;;;;5024004;28;20471;-60
2022/02/14 05:39:19;;;;;;;4.70;2.97;;;5.10;99.90;;;;;;5024056;28;20512;-54
2022/02/14 05:41:46;;;;;;;5.07;3.50;;;5.10;99.90;;;;;;5023977;28;20868;-55
2022/02/14 05:44:12;;;;;;;6.90;3.00;;;5.10;99.90;;;;;;5024119;28;20445;-59
2022/02/14 05:46:39;;;;;;;3.70;3.23;;;5.00;99.90;;;;;;5024389;28;20465;-57
2022/02/14 05:49:06;;;;;;;6.13;3.00;;;5.00;99.90;;;;;;5023973;28;20466;-59
2022/02/14 05:51:34;;;;;;;4.60;3.03;;;5.00;99.90;;;;;;5024443;28;20470;-53
2022/02/14 05:54:01;;;;;;;4.40;2.90;;;5.00;99.90;;;;;;5024663;28;20462;-59
2022/02/14 05:56:27;;;;;;;4.53;3.70;;;4.90;99.90;;;;;;5024020;28;20431;-58
2022/02/14 05:58:54;;;;;;;6.10;4.17;;;4.80;99.90;;;;;;5024832;28;20489;-53
2022/02/14 06:01:21;;;;;;;6.03;3.73;;;4.90;99.90;;;;;;5024108;28;20772;-59
2022/02/14 06:03:47;;;;;;;10.53;4.50;;;4.80;99.90;;;;;;5024181;28;20468;-53
2022/02/14 06:06:14;;;;;;;10.30;4.50;;;4.80;99.90;;;;;;5023599;28;20543;-58
2022/02/14 06:08:42;;;;;;;4.60;3.57;;;4.80;99.90;;;;;;5024202;28;20439;-59
2022/02/14 06:11:08;;;;;;;8.97;4.20;;;4.80;99.90;;;;;;5023943;28;20451;-58
2022/02/14 06:13:35;;;;;;;7.27;3.83;;;4.80;99.90;;;;;;5023848;28;20532;-59
2022/02/14 06:16:02;;;;;;;5.17;3.60;;;4.80;99.90;;;;;;5023294;28;20507;-60
2022/02/14 06:18:28;;;;;;;6.77;3.63;;;4.80;99.90;;;;;;5023343;28;20536;-59
2022/02/14 06:20:55;;;;;;;9.90;5.47;;;4.70;99.90;;;;;;5023415;28;20488;-55
2022/02/14 06:23:22;;;;;;;6.20;4.37;;;4.70;99.90;;;;;;5023192;28;20449;-60
2022/02/14 06:25:50;;;;;;;6.70;5.33;;;4.70;99.90;;;;;;5023020;28;20499;-59
2022/02/14 06:28:16;;;;;;;9.93;4.40;;;4.80;99.90;;;;;;5023065;28;20442;-59
2022/02/14 06:30:45;;;;;;;6.53;4.13;;;4.80;99.90;;;;;;5023521;28;20477;-57
2022/02/14 06:33:12;;;;;;;6.80;3.50;;;4.70;99.90;;;;;;5022612;28;20453;-55
2022/02/14 06:35:39;;;;;;;10.77;3.93;;;4.70;99.90;;;;;;5023224;28;20471;-58
2022/02/14 06:38:06;;;;;;;5.30;3.33;;;4.80;99.90;;;;;;5023161;28;20485;-59
2022/02/14 06:40:32;;;;;;;9.40;4.87;;;4.70;99.90;;;;;;5023569;28;20475;-58
2022/02/14 06:43:00;;;;;;;9.80;4.07;;;4.70;99.90;;;;;;5023396;28;20462;-59
2022/02/14 06:45:27;;;;;;;10.40;5.87;;;4.80;99.90;;;;;;5022814;28;20450;-60
2022/02/14 06:47:54;;;;;;;5.10;3.23;;;4.80;99.90;;;;;;5029485;28;20496;-59
2022/02/14 06:50:21;;;;;;;4.97;4.10;;;4.80;99.90;;;;;;5031683;28;20466;-57
2022/02/14 06:52:47;;;;;;;8.70;4.40;;;4.80;99.90;;;;;;5027521;28;20500;-59
2022/02/14 06:55:14;;;;;;;8.93;5.40;;;4.80;99.90;;;;;;5029616;28;20449;-53
2022/02/14 06:57:42;;;;;;;9.27;6.80;;;4.80;99.90;;;;;;5023132;28;20502;-58
2022/02/14 07:00:14;;;;;;;11.43;5.67;;;4.80;99.90;;;;;;5026772;28;20469;-60
2022/02/14 07:02:41;;;;;;;6.90;4.87;;;4.90;99.90;;;;;;5026909;28;20839;-56
2022/02/14 07:05:14;;;;;;;8.07;4.00;;;4.90;99.90;;;;;;5025640;28;20509;-56
2022/02/14 07:07:42;;;;;;;8.20;4.60;;;5.70;99.90;;;;;;5022779;28;20461;-57
2022/02/14 07:10:09;;;;;;;6.50;3.70;;;6.30;99.90;;;;;;5024419;28;20558;-58
2022/02/14 07:12:36;;;;;;;5.90;3.33;;;6.90;99.90;;;;;;5023812;28;20518;-58
2022/02/14 07:15:04;;;;;;;4.10;3.67;;;6.80;99.90;;;;;;5025062;28;20833;-55
2022/02/14 07:17:32;;;;;;;5.40;3.63;;;6.30;99.90;;;;;;5023292;28;20452;-60
2022/02/14 07:19:59;;;;;;;6.93;4.80;;;5.80;99.90;;;;;;5025951;28;20517;-60
2022/02/14 07:22:26;;;;;;;10.03;5.30;;;5.60;99.90;;;;;;5026347;28;20444;-60
2022/02/14 07:24:52;;;;;;;5.70;3.57;;;5.40;99.90;;;;;;5025444;28;20476;-59
2022/02/14 07:27:19;;;;;;;7.13;2.97;;;5.30;99.90;;;;;;5025655;28;20565;-59
2022/02/14 07:29:46;;;;;;;7.37;4.07;;;5.30;99.90;;;;;;5026355;28;20462;-59
2022/02/14 07:32:13;;;;;;;6.50;3.80;;;5.30;99.90;;;;;;5021400;28;20449;-59
2022/02/14 07:34:41;;;;;;;10.10;3.30;;;5.20;99.90;;;;;;5025370;28;20476;-57
2022/02/14 07:37:08;;;;;;;7.23;4.20;;;5.20;99.90;;;;;;5037616;28;20448;-59
2022/02/14 07:39:34;;;;;;;5.17;4.00;;;5.20;99.90;;;;;;5040109;28;20969;-55
2022/02/14 07:42:02;;;;;;;7.37;4.13;;;5.20;99.90;;;;;;5025367;28;20475;-54
2022/02/14 07:44:28;;;;;;;7.97;3.50;;;5.20;99.90;;;;;;5024930;28;20505;-53
2022/02/14 07:46:55;;;;;;;9.67;3.53;;;5.30;99.90;;;;;;5020506;28;20468;-56
2022/02/14 07:49:23;;;;;;;4.67;3.63;;;5.20;99.90;;;;;;5028827;28;20457;-58
2022/02/14 07:51:51;;;;;;;3.73;3.30;;;5.20;99.90;;;;;;5023791;28;21022;-57
2022/02/14 07:54:18;;;;;;;4.87;3.60;;;5.30;99.90;;;;;;5039206;28;20425;-37
2022/02/14 07:56:50;;;;;;;4.00;2.80;;;5.20;99.90;;;;;;5040377;28;20491;-40
2022/02/14 07:59:17;;;;;;;8.03;4.57;;;5.30;99.90;;;;;;5041098;28;20465;-42
2022/02/14 08:01:44;;;;;;;7.13;3.07;;;5.40;99.90;;;;;;5040987;28;20453;-38
2022/02/14 08:04:19;;;;;;;5.80;3.40;;;5.40;99.90;;;;;;5040813;28;20459;-37
2022/02/14 08:06:58;;;;;;;8.70;3.97;;;5.40;99.90;;;;;;5040761;28;20421;-40
2022/02/14 08:09:25;;;;;;;7.30;4.97;;;5.50;99.90;;;;;;5040911;28;20627;-39
2022/02/14 08:11:53;;;;;;;6.30;4.10;;;5.60;99.90;;;;;;5040773;28;20433;-38
2022/02/14 08:14:20;;;;;;;9.20;3.57;;;5.60;99.90;;;;;;5040751;28;20442;-37
2022/02/14 08:16:48;;;;;;;9.00;4.73;;;5.60;99.90;;;;;;5040766;28;20448;-42
2022/02/14 08:19:16;;;;;;;8.67;4.23;;;5.70;99.90;;;;;;5040739;28;20485;-40
2022/02/14 08:21:43;;;;;;;5.10;3.60;;;5.80;99.90;;;;;;5040299;28;20470;-38
2022/02/14 08:24:13;;;;;;;6.57;4.57;;;5.80;99.90;;;;;;5040699;28;20425;-39
2022/02/14 08:26:42;;;;;;;6.43;4.40;;;5.80;99.90;;;;;;5040971;28;20424;-41
2022/02/14 08:29:14;;;;;;;19.83;4.73;;;5.90;99.90;;;;;;5040906;28;20422;-45
2022/02/14 08:31:41;;;;;;;9.83;4.30;;;5.90;99.90;;;;;;5040784;28;20414;-37
2022/02/14 08:34:08;;;;;;;4.13;3.33;;;6.00;99.90;;;;;;5040709;28;20477;-47
2022/02/14 08:36:35;;;;;;;9.60;4.90;;;6.10;99.90;;;;;;5040598;28;20447;-41
2022/02/14 08:39:03;;;;;;;8.97;4.60;;;6.10;99.90;;;;;;5040492;28;20476;-41
2022/02/14 08:41:31;;;;;;;3.50;2.80;;;6.30;99.90;;;;;;5040505;28;20436;-39
2022/02/14 08:43:59;;;;;;;4.50;3.20;;;6.40;99.90;;;;;;5040060;28;20420;-39
2022/02/14 08:46:26;;;;;;;8.43;3.63;;;6.40;99.90;;;;;;5040318;28;20485;-40
2022/02/14 08:48:55;;;;;;;6.90;3.67;;;6.50;99.90;;;;;;5040384;28;20429;-39
2022/02/14 08:51:23;;;;;;;9.53;4.43;;;6.60;99.90;;;;;;5040275;28;20428;-45
2022/02/14 08:53:51;;;;;;;5.27;4.00;;;6.70;99.90;;;;;;5040284;28;20435;-43
2022/02/14 08:56:18;;;;;;;4.80;3.37;;;6.90;99.90;;;;;;5040128;28;20475;-44
2022/02/14 08:58:46;;;;;;;4.60;3.03;;;7.00;99.90;;;;;;5039819;28;20555;-39
2022/02/14 09:01:13;;;;;;;4.27;2.43;;;7.20;99.90;;;;;;5040172;28;20424;-38
2022/02/14 09:03:40;;;;;;;6.40;3.43;;;7.40;99.90;;;;;;5040055;28;20412;-39
2022/02/14 09:06:07;;;;;;;6.90;3.73;;;7.50;99.90;;;;;;5040096;28;20428;-43
2022/02/14 09:08:35;;;;;;;7.50;3.30;;;7.70;99.90;;;;;;5040177;28;20441;-37
2022/02/14 09:11:03;;;;;;;5.70;3.20;;;7.80;99.90;;;;;;5039920;28;20466;-41
2022/02/14 09:13:31;;;;;;;6.33;2.80;;;8.00;99.90;;;;;;5039981;28;20449;-38
2022/02/14 09:15:59;;;;;;;8.50;2.83;;;8.10;99.90;;;;;;5039894;28;20438;-42
2022/02/14 09:18:32;;;;;;;5.83;3.10;;;8.20;99.90;;;;;;5039463;28;20460;-42
2022/02/14 09:20:59;;;;;;;5.10;2.60;;;8.30;99.90;;;;;;5039567;28;20468;-43
2022/02/14 09:23:26;;;;;;;5.87;3.23;;;8.40;99.90;;;;;;5039538;28;20452;-38
2022/02/14 09:25:53;;;;;;;3.60;2.40;;;8.50;99.90;;;;;;5039684;28;20426;-38
2022/02/14 09:28:20;;;;;;;4.53;2.73;;;8.60;99.10;;;;;;5039642;28;20442;-38
2022/02/14 09:30:46;;;;;;;3.20;2.30;;;8.70;98.70;;;;;;5039516;28;20448;-39
2022/02/14 09:33:14;;;;;;;5.70;2.70;;;8.80;97.80;;;;;;5039145;28;20456;-38
2022/02/14 09:35:43;;;;;;;4.93;2.50;;;8.90;97.30;;;;;;5039325;28;20461;-40
2022/02/14 09:38:11;;;;;;;4.53;3.30;;;9.00;96.50;;;;;;5039433;28;20445;-39
2022/02/14 09:40:38;;;;;;;8.10;4.90;;;9.90;99.90;;;;;;5039329;28;20454;-42
2022/02/14 09:43:05;;;;;;;6.60;3.03;;;11.10;99.90;;;;;;5039452;28;20425;-38
2022/02/14 09:45:32;;;;;;;3.90;3.07;;;11.90;99.90;;;;;;5028176;28;20496;-60
2022/02/14 09:48:01;;;;;;;5.07;2.60;;;12.30;92.70;;;;;;5019195;28;20472;-61
2022/02/14 09:50:31;;;;;;;3.97;3.00;;;12.50;99.90;;;;;;5019510;28;20898;-60
2022/02/14 09:52:59;;;;;;;4.57;3.00;;;12.80;91.00;;;;;;5019729;28;20517;-60
2022/02/14 09:55:27;;;;;;;6.53;3.60;;;13.20;93.60;;;;;;5019851;28;20487;-62
2022/02/14 09:57:54;;;;;;;5.50;3.07;;;14.10;80.30;;;;;;5019284;28;20914;-61
2022/02/14 10:00:21;;;;;;;7.13;3.40;;;15.00;73.10;;;;;;5018573;28;20504;-61
2022/02/14 10:03:08;;;;;;;6.27;3.40;;;16.30;66.80;;;;;;5017863;28;20771;-59
2022/02/14 10:05:42;;;;;;;4.13;3.43;;;17.40;65.20;;;;;;5017396;28;20464;-60
2022/02/14 10:08:09;;;;;;;4.43;2.77;;;18.20;56.20;;;;;;5017377;28;20429;-56
2022/02/14 10:10:37;;;;;;;5.17;2.50;;;18.30;51.20;;;;;;5017143;28;20496;-62
2022/02/14 10:13:04;;;;;;;5.43;3.43;;;18.60;50.50;;;;;;5016830;28;20482;-61
2022/02/14 10:15:34;;;;;;;3.50;2.80;;;19.30;49.20;;;;;;5016797;28;20449;-58
2022/02/14 10:18:01;;;;;;;3.93;2.93;;;20.20;51.00;;;;;;5016575;28;20505;-62
2022/02/14 10:20:31;;;;;;;4.50;2.53;;;20.60;48.40;;;;;;5016827;28;20507;-63
2022/02/14 10:23:02;;;;;;;4.70;2.67;;;21.00;46.80;;;;;;5016759;28;20446;-63
2022/02/14 10:25:32;;;;;;;3.10;2.27;;;21.10;46.00;;;;;;5016607;28;20473;-60
2022/02/14 10:28:14;;;;;;;3.63;2.53;;;21.10;44.20;;;;;;5016470;28;20534;-62
2022/02/14 10:31:00;;;;;;;5.20;3.20;;;20.80;43.50;;;;;;5015070;28;20476;-60
2022/02/14 10:33:46;;;;;;;3.43;2.60;;;20.70;42.90;;;;;;5015534;28;20967;-56
2022/02/14 10:36:14;;;;;;;3.37;2.63;;;20.50;42.20;;;;;;5015534;28;20898;-60
2022/02/14 10:38:42;;;;;;;3.17;2.33;;;20.10;42.30;;;;;;5016050;28;20464;-60
2022/02/14 10:41:14;;;;;;;8.50;3.90;;;19.60;42.90;;;;;;5015948;28;21173;-62
2022/02/14 10:43:42;;;;;;;6.07;2.67;;;19.40;43.00;;;;;;5016149;28;20486;-56
2022/02/14 10:46:09;;;;;;;4.30;2.97;;;19.40;43.20;;;;;;5015912;28;20460;-61
2022/02/14 10:48:39;;;;;;;6.57;3.20;;;19.40;43.30;;;;;;5016001;28;20773;-61
2022/02/14 10:51:07;;;;;;;5.10;3.23;;;19.40;43.10;;;;;;5015816;28;20487;-58
2022/02/14 10:53:45;;;;;;;5.57;2.87;;;19.10;43.30;;;;;;5015780;28;20452;-58
2022/02/14 10:56:13;;;;;;;5.10;3.10;;;19.00;44.00;;;;;;5015679;28;20873;-61
2022/02/14 10:58:41;;;;;;;4.40;2.60;;;19.10;43.80;;;;;;5015825;28;20818;-58
2022/02/14 11:01:11;;;;;;;5.47;2.70;;;19.20;43.80;;;;;;5015902;28;20495;-61
2022/02/14 11:03:40;;;;;;;6.30;2.63;;;19.30;43.80;;;;;;5015650;28;20501;-60
2022/02/14 11:06:07;;;;;;;3.30;2.33;;;19.40;43.80;;;;;;5015493;28;20514;-58
2022/02/14 11:08:35;;;;;;;3.60;2.93;;;19.20;44.00;;;;;;5015953;28;20451;-63
2022/02/14 11:11:05;;;;;;;3.97;3.60;;;19.10;44.10;;;;;;5015558;28;20462;-64
2022/02/14 11:13:33;;;;;;;3.20;2.90;;;18.80;44.70;;;;;;5016440;28;20506;-56
2022/02/14 11:16:00;;;;;;;6.23;3.20;;;18.80;44.70;;;;;;5015937;28;20449;-57
2022/02/14 11:18:31;;;;;;;6.70;2.90;;;18.50;45.00;;;;;;5015989;28;20436;-58
2022/02/14 11:21:02;;;;;;;4.60;2.90;;;18.30;45.20;;;;;;5008879;28;20827;-61
2022/02/14 11:23:39;;;;;;;3.95;3.55;;;18.20;45.60;;;;;;4995832;28;20478;-56
2022/02/14 11:26:16;;;;;;;3.03;2.43;;;18.00;45.80;;;;;;4996238;28;20513;-60
2022/02/14 11:28:47;;;;;;;7.93;2.83;;;17.70;46.40;;;;;;4996320;28;20480;-61
2022/02/14 11:31:17;;;;;;;3.70;2.57;;;17.30;46.80;;;;;;4996239;28;20423;-57
2022/02/14 11:33:54;;;;;;;3.27;2.63;;;16.70;47.70;;;;;;4996370;28;20513;-62
2022/02/14 11:36:21;;;;;;;4.00;2.70;;;16.00;48.90;;;;;;4996437;28;20468;-60
2022/02/14 11:38:50;;;;;;;3.80;2.53;;;15.60;49.50;;;;;;4996268;28;20474;-57
2022/02/14 11:41:28;;;;;;;4.07;2.40;;;15.30;50.50;;;;;;4996792;28;20553;-61
2022/02/14 11:44:13;;;;;;;7.33;3.17;;;15.00;50.90;;;;;;5000577;28;20448;-60
2022/02/14 11:46:42;;;;;;;4.17;2.30;;;14.70;51.60;;;;;;5000253;28;20448;-59
2022/02/14 11:49:18;;;;;;;4.07;2.60;;;14.40;52.70;;;;;;5000841;28;20617;-61
2022/02/14 11:51:52;;;;;;;3.43;2.30;;;14.10;52.90;;;;;;5000444;28;20447;-60
2022/02/14 11:54:30;;;;;;;4.63;2.77;;;14.00;53.40;;;;;;5000570;28;20472;-58
2022/02/14 11:57:26;;;;;;;6.73;3.13;;;13.70;53.90;;;;;;5000623;28;20929;-61
2022/02/14 11:59:53;;;;;;;7.00;2.80;;;13.50;54.50;;;;;;5000542;28;20534;-59
2022/02/14 12:02:30;;;;;;;5.20;3.47;;;13.40;55.20;;;;;;5000903;28;20474;-57
2022/02/14 12:04:57;;;;;;;5.30;3.40;;;13.30;55.50;;;;;;5001176;28;20459;-60
2022/02/14 12:07:34;;;;;;;3.07;2.73;;;13.10;56.00;;;;;;5001298;28;20490;-59
2022/02/14 12:10:25;;;;;;;4.20;2.20;;;13.10;56.70;;;;;;5001060;28;20430;-59
2022/02/14 12:13:14;;;;;;;2.53;1.77;;;13.00;57.20;;;;;;5001396;28;20506;-57
2022/02/14 12:21:20;;;;;;;4.13;2.80;;;13.00;58.30;;;;;;5000535;28;20538;-58
2022/02/14 12:23:48;;;;;;;2.17;1.87;;;13.00;58.50;;;;;;5000542;28;20454;-60
2022/02/14 12:26:17;;;;;;;3.30;2.03;;;13.00;58.80;;;;;;5014696;28;20462;-57
2022/02/14 12:29:31;;;;;;;4.83;2.53;;;13.00;59.40;;;;;;5022336;28;20438;-56
2022/02/14 12:31:43;;;;;;;6.97;2.50;;;13.10;59.30;;;;;;5021686;28;20465;-60
2022/02/14 12:34:10;;;;;;;6.00;2.60;;;13.10;59.70;;;;;;5021457;28;20524;-59
2022/02/14 12:36:37;;;;;;;3.53;2.30;;;13.20;59.50;;;;;;5021701;28;20569;-60
2022/02/14 12:39:05;;;;;;;4.57;2.70;;;13.20;59.60;;;;;;5022160;28;20456;-58
2022/02/14 12:41:34;;;;;;;5.53;3.00;;;13.20;59.80;;;;;;5022159;28;20481;-60
2022/02/14 12:44:04;;;;;;;4.80;2.77;;;13.20;60.30;;;;;;5021689;28;20552;-58
2022/02/14 12:46:32;;;;;;;2.90;2.60;;;13.30;60.60;;;;;;5021598;28;20441;-60
2022/02/14 12:49:03;;;;;;;2.73;2.30;;;13.30;60.70;;;;;;5021955;28;20471;-60
2022/02/14 12:51:31;;;;;;;5.27;2.83;;;13.30;61.10;;;;;;5022081;28;20509;-56
2022/02/14 12:54:00;;;;;;;7.13;3.30;;;13.40;60.90;;;;;;5020140;28;20934;-57
2022/02/14 12:56:29;;;;;;;6.97;4.30;;;13.40;61.30;;;;;;5020608;28;20435;-60
2022/02/14 12:58:58;;;;;;;2.53;2.23;;;13.40;61.60;;;;;;5020992;28;20998;-57
2022/02/14 13:01:28;;;;;;;5.53;2.10;;;13.40;61.70;;;;;;5020974;28;20496;-60
2022/02/14 13:03:59;;;;;;;5.80;2.90;;;13.40;62.00;;;;;;5021328;28;20497;-58